Time;durP1;ratioP1;P1;durP2;ratioP2;P2;SDS_P1;SDS_P2;PMS_P1;PMS_P2;Temp;Humidity;BMP_temperature;BMP_pressure;BME280_temperature;BME280_humidity;BME280_pressure;Samples;Min_cycle;Max_cycle;Signal;HPM_P1;HPM_P2
2021/03/24 00:01:50;;;;;;;41.97;22.15;;;;;;;5.24;72.46;101346.28;5015432;28;20764;-84
2021/03/24 00:04:17;;;;;;;39.67;21.75;;;;;;;5.31;71.76;101362.00;5024113;28;20081;-82
2021/03/24 00:06:44;;;;;;;40.50;21.63;;;;;;;5.28;72.18;101357.66;5025657;28;20045;-84
2021/03/24 00:09:14;;;;;;;41.70;22.42;;;;;;;5.29;72.28;101354.13;5032443;28;20084;-81
2021/03/24 00:11:41;;;;;;;39.78;21.60;;;;;;;5.25;71.83;101358.53;5030401;28;20064;-84
2021/03/24 00:14:07;;;;;;;37.67;21.35;;;;;;;5.24;71.97;101351.56;5028912;28;20041;-81
2021/03/24 00:16:36;;;;;;;43.10;22.73;;;;;;;5.18;71.92;101346.38;5037837;28;20068;-82
2021/03/24 00:19:27;;;;;;;42.85;21.88;;;;;;;5.21;71.95;101356.81;5026238;28;20061;-83
2021/03/24 00:22:04;;;;;;;38.28;21.77;;;;;;;5.23;72.09;101356.81;5035686;28;20076;-83
2021/03/24 00:24:31;;;;;;;41.10;20.70;;;;;;;5.19;72.43;101352.50;5031902;28;20050;-82
2021/03/24 00:26:57;;;;;;;35.65;21.05;;;;;;;5.19;71.86;101356.00;5031302;28;20053;-83
2021/03/24 00:29:24;;;;;;;36.22;20.17;;;;;;;5.12;72.77;101348.19;5034942;28;20140;-81
2021/03/24 00:31:50;;;;;;;38.08;20.52;;;;;;;5.12;72.74;101364.81;5027676;28;20088;-82
2021/03/24 00:34:19;;;;;;;41.20;21.42;;;;;;;5.09;72.91;101363.94;5011922;28;20145;-82
2021/03/24 00:36:45;;;;;;;35.33;21.35;;;;;;;5.04;72.66;101363.13;5031495;28;20081;-79
2021/03/24 00:39:16;;;;;;;39.28;21.30;;;;;;;5.03;73.09;101364.91;5038580;28;20046;-84
2021/03/24 00:41:42;;;;;;;;;;;;;;;4.99;72.90;101352.69;5045301;28;20050;-79
2021/03/24 00:44:11;;;;;;;39.35;20.00;;;;;;;4.94;72.83;101362.34;5029279;28;19983;-81
2021/03/24 00:46:38;;;;;;;42.33;22.35;;;;;;;4.89;73.86;101365.00;5000636;28;20085;-82
2021/03/24 00:49:05;;;;;;;34.47;20.35;;;;;;;4.87;73.13;101360.66;5020909;28;20065;-81
2021/03/24 00:51:32;;;;;;;36.03;20.80;;;;;;;4.83;73.70;101361.56;5019464;28;20074;-82
2021/03/24 00:54:00;;;;;;;42.60;21.55;;;;;;;4.82;73.72;101357.19;5028630;28;20060;-85
2021/03/24 00:56:26;;;;;;;43.95;22.70;;;;;;;4.82;72.92;101352.81;5019055;28;20161;-80
2021/03/24 00:58:53;;;;;;;43.17;21.45;;;;;;;4.81;73.86;101355.44;5018944;28;20107;-83
2021/03/24 01:01:21;;;;;;;41.38;22.52;;;;;;;4.74;73.89;101338.00;4994309;28;20046;-80
2021/03/24 01:03:48;;;;;;;44.30;22.25;;;;;;;4.78;73.27;101342.34;5018963;28;20050;-82
2021/03/24 01:06:14;;;;;;;43.00;22.23;;;;;;;4.74;73.75;101338.00;5025444;28;20050;-83
2021/03/24 01:08:41;;;;;;;42.10;20.80;;;;;;;4.69;73.78;101348.56;5007703;28;20134;-82
2021/03/24 01:11:07;;;;;;;39.33;20.85;;;;;;;4.64;74.38;101344.22;5006750;28;20058;-83
2021/03/24 01:13:36;;;;;;;43.00;21.27;;;;;;;4.57;74.76;101344.25;5012207;28;20069;-83
2021/03/24 01:16:03;;;;;;;40.40;21.35;;;;;;;4.51;74.74;101346.94;5001705;28;20596;-83
2021/03/24 01:18:30;;;;;;;42.88;21.48;;;;;;;4.48;74.93;101349.56;5009812;28;20612;-82
2021/03/24 01:20:58;;;;;;;39.55;21.95;;;;;;;4.46;74.91;101350.47;5007530;28;20138;-82
2021/03/24 01:23:24;;;;;;;41.33;22.02;;;;;;;4.43;74.64;101345.22;4995514;28;20859;-85
2021/03/24 01:25:50;;;;;;;40.55;22.13;;;;;;;4.37;74.30;101354.03;5013817;28;20085;-84
2021/03/24 01:28:21;;;;;;;41.40;22.13;;;;;;;4.25;73.90;101348.00;4996800;28;20052;-83
2021/03/24 01:30:48;;;;;;;39.50;21.80;;;;;;;4.15;74.28;101358.50;5004774;28;20089;-84
2021/03/24 01:33:16;;;;;;;40.42;22.52;;;;;;;4.07;75.28;101362.06;5004056;28;20478;-83
2021/03/24 01:35:44;;;;;;;34.50;21.63;;;;;;;4.00;75.74;101355.09;4994500;28;20062;-84
2021/03/24 01:38:10;;;;;;;41.15;23.40;;;;;;;3.94;75.56;101349.88;5015116;28;20051;-81
2021/03/24 01:40:41;;;;;;;38.72;21.15;;;;;;;3.87;75.93;101347.31;5015315;28;20053;-82
2021/03/24 01:43:29;;;;;;;44.40;24.15;;;;;;;3.83;76.37;101349.94;5008828;28;20072;-81
2021/03/24 01:46:37;;;;;;;41.33;23.05;;;;;;;3.79;76.38;101342.97;5014223;28;20124;-81
2021/03/24 01:49:38;;;;;;;45.90;23.92;;;;;;;3.71;76.67;101348.25;5014048;28;20053;-83
2021/03/24 01:52:08;;;;;;;46.47;23.10;;;;;;;3.64;77.45;101346.50;5011825;28;20148;-83
2021/03/24 01:54:37;;;;;;;45.93;23.60;;;;;;;3.64;77.18;101343.88;5016057;28;20481;-80
2021/03/24 01:57:09;;;;;;;44.10;23.60;;;;;;;3.64;77.95;101341.28;5000419;28;22024;-82
2021/03/24 01:59:37;;;;;;;42.75;22.83;;;;;;;3.65;77.83;101336.91;5003557;28;20081;-82
2021/03/24 02:02:13;;;;;;;39.60;22.27;;;;;;;3.63;77.96;101336.91;5020513;28;20117;-82
2021/03/24 02:04:41;;;;;;;41.17;22.05;;;;;;;3.64;78.16;101343.88;5019069;28;20397;-82
2021/03/24 02:07:29;;;;;;;42.83;22.63;;;;;;;3.68;77.35;101345.63;5026060;28;20126;-82
2021/03/24 02:09:55;;;;;;;41.90;23.60;;;;;;;3.67;77.88;101345.63;5037476;28;20042;-82
2021/03/24 02:12:31;;;;;;;46.88;23.50;;;;;;;3.64;78.27;101341.28;5043371;28;20050;-83
2021/03/24 02:15:32;;;;;;;43.70;22.80;;;;;;;3.67;78.06;101346.50;5037937;28;20068;-84
2021/03/24 02:18:00;;;;;;;41.83;22.30;;;;;;;3.66;77.93;101343.88;5027834;28;20053;-83
2021/03/24 02:20:33;;;;;;;41.83;23.08;;;;;;;3.63;77.91;101343.88;5021493;28;20058;-83
2021/03/24 02:23:40;;;;;;;45.58;23.08;;;;;;;3.63;77.87;101336.03;5007113;28;20078;-83
2021/03/24 02:26:13;;;;;;;42.00;22.02;;;;;;;3.59;78.18;101343.06;4994547;28;20130;-84
2021/03/24 02:28:43;;;;;;;41.83;22.42;;;;;;;3.58;78.18;101345.69;5011850;28;20064;-83
2021/03/24 02:31:13;;;;;;;44.58;23.38;;;;;;;3.56;78.39;101340.44;5017485;28;20050;-83
2021/03/24 02:33:43;;;;;;;43.45;23.60;;;;;;;3.55;78.51;101345.69;5013479;28;20073;-82
2021/03/24 02:36:14;;;;;;;42.17;22.17;;;;;;;3.55;78.34;101330.84;5018172;28;20421;-82
2021/03/24 02:38:43;;;;;;;40.55;22.08;;;;;;;3.53;78.39;101332.59;5028709;28;20176;-81
2021/03/24 02:41:11;;;;;;;40.75;22.20;;;;;;;3.49;78.10;101333.47;5015835;28;20050;-80
2021/03/24 02:43:39;;;;;;;47.17;23.17;;;;;;;3.47;78.23;101332.59;5016466;28;20054;-82
2021/03/24 02:46:08;;;;;;;42.92;23.13;;;;;;;3.45;78.46;101334.38;5013530;28;20108;-84
2021/03/24 02:48:38;;;;;;;44.47;22.85;;;;;;;3.44;78.20;101337.88;5023899;28;20045;-81
2021/03/24 02:51:13;;;;;;;46.50;23.20;;;;;;;3.41;78.38;101336.13;5009224;28;20050;-83
2021/03/24 02:54:01;;;;;;;41.50;21.73;;;;;;;3.40;78.36;101333.50;5019914;28;20046;-84
2021/03/24 02:56:28;;;;;;;44.53;23.58;;;;;;;3.39;78.71;101326.53;5005966;28;20058;-80
2021/03/24 02:58:57;;;;;;;45.42;23.13;;;;;;;3.38;78.77;101330.88;5029820;28;20074;-80
2021/03/24 03:01:27;;;;;;;39.70;22.83;;;;;;;3.37;78.38;101325.66;5018706;28;20053;-83
2021/03/24 03:03:59;;;;;;;45.08;21.95;;;;;;;3.37;78.34;101328.28;5026734;28;20065;-82
2021/03/24 03:06:27;;;;;;;43.60;22.77;;;;;;;3.36;78.41;101329.16;5030344;28;20073;-80
2021/03/24 03:09:02;;;;;;;38.45;21.52;;;;;;;3.31;78.09;101331.75;5038280;28;20061;-81
2021/03/24 03:11:42;;;;;;;44.65;21.92;;;;;;;3.28;78.62;101329.19;5041639;28;20053;-81
2021/03/24 03:14:11;;;;;;;40.90;21.73;;;;;;;3.25;78.31;101329.19;5029495;28;20446;-82
2021/03/24 03:16:51;;;;;;;43.97;21.92;;;;;;;3.24;78.27;101330.06;5026342;28;20042;-86
2021/03/24 03:19:30;;;;;;;41.23;22.70;;;;;;;3.21;77.66;101334.41;5027747;28;20064;-83
2021/03/24 03:22:19;;;;;;;39.83;22.48;;;;;;;3.11;78.37;101328.34;5033232;28;20477;-85
2021/03/24 03:24:52;;;;;;;42.45;22.40;;;;;;;3.03;77.70;101324.84;5032963;28;20140;-82
2021/03/24 03:27:22;;;;;;;40.25;22.13;;;;;;;2.95;77.56;101334.47;5021655;28;20050;-83
2021/03/24 03:29:51;;;;;;;38.63;22.25;;;;;;;2.88;77.85;101333.59;4996069;28;20051;-81
2021/03/24 03:32:20;;;;;;;41.20;22.90;;;;;;;2.90;78.50;101334.47;5020382;28;21399;-82
2021/03/24 03:34:53;;;;;;;39.85;23.60;;;;;;;2.80;78.38;101327.50;5020444;28;20050;-81
2021/03/24 03:37:21;;;;;;;42.75;23.38;;;;;;;2.74;78.76;101330.09;5009540;28;20532;-81
2021/03/24 03:39:50;;;;;;;42.83;23.27;;;;;;;2.70;78.97;101328.34;5022377;28;20050;-82
2021/03/24 03:42:17;;;;;;;42.90;22.13;;;;;;;2.62;79.27;101330.97;5018116;28;20060;-81
2021/03/24 03:44:44;;;;;;;41.40;23.20;;;;;;;2.52;79.51;101329.22;5022423;28;20054;-81
2021/03/24 03:47:12;;;;;;;43.40;22.88;;;;;;;2.38;79.99;101323.97;5009633;28;20049;-80
2021/03/24 03:49:40;;;;;;;43.67;22.15;;;;;;;2.33;80.70;101322.25;5013823;28;20131;-82
2021/03/24 03:52:10;;;;;;;41.50;22.10;;;;;;;2.33;81.35;101325.75;5012591;28;20140;-84
2021/03/24 03:55:18;;;;;;;41.75;23.48;;;;;;;2.39;81.72;101325.72;5012125;28;20052;-82
2021/03/24 03:58:20;;;;;;;41.63;21.98;;;;;;;2.46;81.48;101330.09;5004322;28;20085;-82
2021/03/24 04:01:10;;;;;;;42.15;21.65;;;;;;;2.52;81.04;101323.16;4994579;28;20129;-83
2021/03/24 04:04:08;;;;;;;42.90;21.88;;;;;;;2.51;80.49;101321.41;5031109;28;20065;-84
2021/03/24 04:06:40;;;;;;;44.03;22.25;;;;;;;2.50;80.95;101322.28;5022128;28;20055;-83
2021/03/24 04:09:09;;;;;;;39.65;21.50;;;;;;;2.50;81.22;101327.50;5021214;28;20050;-83
2021/03/24 04:11:44;;;;;;;40.22;22.70;;;;;;;2.51;80.56;101322.28;5028631;28;20141;-82
2021/03/24 04:14:16;;;;;;;42.05;22.17;;;;;;;2.51;81.26;101324.00;5020401;28;20045;-82
2021/03/24 04:16:45;;;;;;;40.72;21.75;;;;;;;2.51;80.90;101327.50;5016252;28;20113;-82
2021/03/24 04:19:16;;;;;;;43.22;22.42;;;;;;;2.52;80.73;101334.44;5011071;28;20080;-84
2021/03/24 04:21:48;;;;;;;42.30;21.73;;;;;;;2.53;81.03;101328.34;5006814;28;20054;-82
2021/03/24 04:24:17;;;;;;;;;;;;;;;2.53;80.63;101330.97;5027540;28;20064;-79
2021/03/24 04:26:46;;;;;;;38.53;22.25;;;;;;;2.53;80.66;101328.34;5020129;28;19985;-80
2021/03/24 04:29:20;;;;;;;43.08;22.92;;;;;;;2.53;80.62;101324.84;5014730;28;20046;-84
2021/03/24 04:31:53;;;;;;;40.88;22.63;;;;;;;2.53;80.74;101314.41;5025713;28;20057;-82
2021/03/24 04:34:22;;;;;;;45.35;23.30;;;;;;;2.47;80.44;101320.53;5021342;28;20137;-80
2021/03/24 04:37:09;;;;;;;42.92;23.13;;;;;;;2.44;81.76;101321.38;5003679;28;20054;-80
2021/03/24 04:39:41;;;;;;;38.80;21.65;;;;;;;2.46;81.79;101324.88;5015344;28;20054;-80
2021/03/24 04:42:31;;;;;;;42.45;22.17;;;;;;;2.50;81.36;101325.75;5015321;28;20075;-80
2021/03/24 04:45:20;;;;;;;44.97;22.48;;;;;;;2.49;81.28;101323.13;5009257;28;20607;-80
2021/03/24 04:47:53;;;;;;;33.70;17.67;;;;;;;2.51;81.42;101331.84;5012535;28;20050;-81
2021/03/24 04:50:22;;;;;;;38.15;22.02;;;;;;;2.49;81.62;101330.97;5019105;28;20546;-81
2021/03/24 04:52:49;;;;;;;38.90;21.05;;;;;;;2.47;81.13;101331.84;5021137;28;20083;-79
2021/03/24 04:55:34;;;;;;;45.20;21.77;;;;;;;2.49;81.41;101336.22;5026672;28;20062;-79
2021/03/24 04:58:04;;;;;;;46.50;22.52;;;;;;;2.46;81.27;101332.72;5000757;28;20053;-79
2021/03/24 05:00:35;;;;;;;43.23;22.83;;;;;;;2.47;80.92;101331.84;5023921;28;20061;-80
2021/03/24 05:03:12;;;;;;;42.13;22.45;;;;;;;2.47;81.32;101330.97;5025409;28;20491;-79
2021/03/24 05:05:51;;;;;;;41.13;22.27;;;;;;;2.49;81.00;101328.38;5005784;28;20054;-81
2021/03/24 05:08:29;;;;;;;44.58;22.05;;;;;;;2.48;80.85;101330.09;5014597;28;20089;-79
2021/03/24 05:11:01;;;;;;;41.05;22.02;;;;;;;2.45;80.85;101333.59;5012010;28;20217;-82
2021/03/24 05:13:33;;;;;;;43.22;22.02;;;;;;;2.43;80.42;101322.25;5013510;28;20056;-80
2021/03/24 05:16:14;;;;;;;45.28;22.02;;;;;;;2.44;81.11;101334.44;5008692;28;20049;-84
2021/03/24 05:18:41;;;;;;;40.15;22.20;;;;;;;2.42;81.15;101333.56;5011638;28;20053;-81
2021/03/24 05:21:27;;;;;;;40.38;21.85;;;;;;;2.43;81.13;101340.56;4996965;28;20049;-82
2021/03/24 05:23:57;;;;;;;45.85;23.38;;;;;;;2.46;81.52;101337.94;5017591;28;20107;-83
2021/03/24 05:26:33;;;;;;;41.83;22.63;;;;;;;2.49;80.96;101341.44;5004858;28;20509;-83
2021/03/24 05:29:04;;;;;;;43.47;23.27;;;;;;;2.49;80.81;101344.94;5015918;28;20054;-81
2021/03/24 05:31:38;;;;;;;38.78;21.77;;;;;;;2.44;80.03;101347.53;5027926;28;20053;-81
2021/03/24 05:34:13;;;;;;;44.25;22.40;;;;;;;2.43;80.71;101351.00;5012728;28;20121;-81
2021/03/24 05:36:45;;;;;;;45.00;22.20;;;;;;;2.43;80.88;101351.00;5032103;28;20057;-85
2021/03/24 05:39:24;;;;;;;42.50;23.10;;;;;;;2.47;80.80;101360.59;5009166;28;20057;-83
2021/03/24 05:42:14;;;;;;;45.17;22.80;;;;;;;2.51;80.07;101361.50;5005960;28;20042;-80
2021/03/24 05:44:48;;;;;;;41.97;22.52;;;;;;;2.54;80.35;101363.22;5013069;28;20053;-82
2021/03/24 05:47:17;;;;;;;41.75;22.98;;;;;;;2.56;80.21;101371.94;5008200;28;20417;-82
2021/03/24 05:50:02;;;;;;;43.37;22.53;;;;;;;2.56;79.58;101364.97;5012163;28;20054;-81
2021/03/24 05:52:50;;;;;;;44.72;22.98;;;;;;;2.56;79.57;101364.97;5018785;28;20529;-80
2021/03/24 05:55:54;;;;;;;39.63;22.33;;;;;;;2.60;79.78;101366.72;5021352;28;20053;-82
2021/03/24 05:58:32;;;;;;;43.55;23.15;;;;;;;2.39;78.52;101364.06;5016762;28;20122;-82
2021/03/24 06:01:14;;;;;;;41.00;21.27;;;;;;;2.21;79.41;101367.50;5016414;28;20054;-82
2021/03/24 06:03:52;;;;;;;39.33;21.27;;;;;;;2.29;80.14;101362.31;5029654;28;20085;-81
2021/03/24 06:06:45;;;;;;;43.55;22.30;;;;;;;2.39;79.50;101367.53;5019567;28;20057;-80
2021/03/24 06:09:21;;;;;;;;;;;;;;;2.50;79.66;101361.47;5019489;28;20065;-82
2021/03/24 06:12:03;;;;;;;40.58;20.30;;;;;;;2.58;78.68;101362.34;5014030;28;20020;-83
2021/03/24 06:14:32;;;;;;;39.28;21.05;;;;;;;2.68;79.08;101366.69;5003537;28;20509;-84
2021/03/24 06:17:20;;;;;;;39.45;21.73;;;;;;;2.76;78.60;101371.09;5023892;28;20088;-85
2021/03/24 06:20:36;;;;;;;41.03;22.00;;;;;;;2.87;78.62;101371.06;5019375;28;20117;-86
2021/03/24 06:23:34;;;;;;;41.35;22.02;;;;;;;2.98;78.69;101368.47;4946000;29;20182;-82
2021/03/24 06:26:27;;;;;;;46.72;23.30;;;;;;;3.11;78.44;101358.00;5015196;28;20461;-84
2021/03/24 06:29:38;;;;;;;49.55;23.02;;;;;;;3.25;77.86;101359.72;4988065;28;20412;-83
2021/03/24 06:32:20;;;;;;;44.57;23.20;;;;;;;3.36;78.27;101357.94;5021451;28;20054;-82
2021/03/24 06:35:14;;;;;;;46.42;23.25;;;;;;;3.45;77.37;101350.97;5015603;28;20049;-83
2021/03/24 06:37:56;;;;;;;41.78;22.63;;;;;;;3.55;76.82;101362.25;5018434;28;20072;-84
2021/03/24 06:40:37;;;;;;;41.65;23.38;;;;;;;3.65;77.52;101363.09;5020810;28;20053;-84
2021/03/24 06:43:19;;;;;;;45.33;23.95;;;;;;;3.76;77.14;101366.56;5019663;28;20612;-82
2021/03/24 06:45:51;;;;;;;43.60;23.23;;;;;;;3.90;77.34;101353.41;5025979;28;20050;-82
2021/03/24 06:48:47;;;;;;;44.15;24.20;;;;;;;4.11;76.39;101366.38;5026444;28;20050;-82
2021/03/24 06:51:38;;;;;;;43.90;22.90;;;;;;;4.41;76.07;101360.09;5003844;28;20045;-83
2021/03/24 06:54:18;;;;;;;41.40;23.20;;;;;;;5.47;73.93;101358.34;5009268;28;20085;-82
2021/03/24 06:57:14;;;;;;;;;;;;;;;6.84;67.89;101356.50;5036086;28;20054;-85
2021/03/24 07:00:03;;;;;;;35.90;20.52;;;;;;;8.00;62.84;101360.47;5029728;28;19952;-82
2021/03/24 07:03:01;;;;;;;37.72;20.98;;;;;;;8.85;59.15;101362.94;5023509;28;20088;-82
2021/03/24 07:05:31;;;;;;;34.97;20.58;;;;;;;9.48;57.28;101357.78;5026505;28;20056;-83
2021/03/24 07:08:39;;;;;;;40.58;22.17;;;;;;;9.98;55.84;101355.50;5027283;28;20132;-86
2021/03/24 07:11:40;;;;;;;40.05;22.48;;;;;;;10.55;53.23;101358.19;5007550;28;20112;-81
2021/03/24 07:14:23;;;;;;;41.45;22.13;;;;;;;10.64;51.19;101362.34;5022644;28;20058;-83
2021/03/24 07:16:55;;;;;;;40.45;23.23;;;;;;;10.40;52.50;101364.81;5016055;28;20513;-82
2021/03/24 07:19:43;;;;;;;37.25;21.95;;;;;;;10.34;53.18;101356.22;5026480;28;20096;-83
2021/03/24 07:22:45;;;;;;;46.75;25.67;;;;;;;10.97;51.85;101363.03;5009743;28;20056;-85
2021/03/24 07:25:38;;;;;;;45.83;25.92;;;;;;;11.70;49.38;101374.59;5028133;28;20042;-82
2021/03/24 07:28:38;;;;;;;43.17;26.40;;;;;;;12.01;48.78;101374.38;5015949;28;20054;-83
2021/03/24 07:31:27;;;;;;;43.38;24.08;;;;;;;12.36;47.66;101372.16;5024771;28;20054;-84
2021/03/24 07:34:22;;;;;;;39.65;23.92;;;;;;;12.81;46.35;101369.47;5018025;28;20053;-84
2021/03/24 07:37:11;;;;;;;40.72;23.88;;;;;;;13.37;45.63;101371.59;4996841;28;20042;-83
2021/03/24 07:40:02;;;;;;;39.35;24.90;;;;;;;13.80;44.18;101365.25;5036171;28;20046;-82
2021/03/24 07:42:31;;;;;;;;;;;;;;;14.03;43.24;101370.38;5022583;28;20145;-83
2021/03/24 07:45:35;;;;;;;47.03;28.53;;;;;;;14.30;42.97;101370.94;5028481;28;20008;-84
2021/03/24 07:48:23;;;;;;;46.88;27.77;;;;;;;14.56;41.67;101372.38;5029320;28;20053;-83
2021/03/24 07:51:23;;;;;;;45.05;28.27;;;;;;;14.26;42.31;101372.84;5033864;28;20041;-85
2021/03/24 07:54:07;;;;;;;47.95;28.42;;;;;;;13.56;43.07;101375.16;4979552;28;20055;-84
2021/03/24 07:57:01;;;;;;;46.25;28.02;;;;;;;13.46;44.10;101382.69;5035066;28;20519;-83
2021/03/24 07:59:44;;;;;;;44.47;28.00;;;;;;;13.35;45.29;101379.66;4977107;28;20138;-83
2021/03/24 08:02:16;;;;;;;43.33;27.42;;;;;;;14.01;43.42;101383.75;5017145;28;20401;-81
2021/03/24 08:05:13;;;;;;;48.70;28.15;;;;;;;13.89;42.57;101380.78;5000423;28;20130;-81
2021/03/24 08:07:49;;;;;;;48.85;29.65;;;;;;;13.26;43.65;101382.69;5015243;28;20484;-81
2021/03/24 08:10:22;;;;;;;48.85;27.92;;;;;;;12.74;45.11;101387.47;5020191;28;20157;-82
2021/03/24 08:13:14;;;;;;;46.33;28.50;;;;;;;13.40;44.62;101382.09;5018956;28;20050;-84
2021/03/24 08:16:23;;;;;;;43.90;27.92;;;;;;;14.05;42.67;101379.16;5029387;28;20041;-83
2021/03/24 08:18:53;;;;;;;44.15;25.40;;;;;;;14.60;40.62;101380.16;5033498;28;20083;-84
2021/03/24 08:21:43;;;;;;;47.08;27.13;;;;;;;14.50;41.25;101372.66;5034987;28;20045;-88
2021/03/24 08:24:37;;;;;;;43.10;26.00;;;;;;;14.28;41.43;101373.66;5044989;28;20038;-86
2021/03/24 08:27:17;;;;;;;44.85;26.63;;;;;;;13.86;42.41;101380.94;5018054;28;20048;-87
2021/03/24 08:30:06;;;;;;;40.08;26.38;;;;;;;13.34;43.13;101375.25;5029664;28;20069;-84
2021/03/24 08:33:10;;;;;;;41.20;26.52;;;;;;;13.05;44.19;101367.63;5023683;28;20473;-82
2021/03/24 08:36:08;;;;;;;42.22;24.92;;;;;;;13.47;44.27;101360.47;5015339;28;20046;-83
2021/03/24 08:39:03;;;;;;;37.53;23.73;;;;;;;14.00;43.33;101358.09;5020019;28;20081;-82
2021/03/24 08:41:41;;;;;;;39.97;26.25;;;;;;;14.24;41.30;101356.09;5036620;28;20057;-81
2021/03/24 08:44:35;;;;;;;39.30;23.63;;;;;;;14.29;42.24;101362.06;5024172;28;20057;-82
2021/03/24 08:47:24;;;;;;;40.35;25.48;;;;;;;14.63;41.11;101352.50;5036783;28;20054;-82
2021/03/24 08:49:54;;;;;;;41.05;26.35;;;;;;;14.57;41.63;101363.44;5047993;28;20054;-82
2021/03/24 08:53:00;;;;;;;40.10;24.92;;;;;;;14.69;41.33;101353.03;5028373;28;20117;-81
2021/03/24 08:55:30;;;;;;;42.50;25.08;;;;;;;14.86;40.69;101357.56;5002707;28;20073;-80
2021/03/24 08:58:01;;;;;;;40.63;25.23;;;;;;;14.07;41.48;101350.66;5014730;28;20141;-82
2021/03/24 09:00:52;;;;;;;40.47;24.95;;;;;;;12.83;43.57;101355.19;5020450;28;20131;-84
2021/03/24 09:03:27;;;;;;;43.63;25.33;;;;;;;11.84;46.19;101353.75;5006813;28;20038;-84
2021/03/24 09:06:12;;;;;;;44.85;25.83;;;;;;;10.82;48.52;101352.00;5016441;28;20872;-83
2021/03/24 09:09:11;;;;;;;45.58;25.80;;;;;;;10.29;50.40;101350.19;5023729;28;20054;-81
2021/03/24 09:11:42;;;;;;;45.08;25.23;;;;;;;9.94;51.71;101349.41;5022376;28;20057;-84
2021/03/24 09:14:33;;;;;;;42.83;24.23;;;;;;;9.78;52.46;101345.47;5019574;28;20074;-85
2021/03/24 09:17:18;;;;;;;40.55;24.60;;;;;;;9.70;53.20;101355.41;5011183;28;20484;-85
2021/03/24 09:20:22;;;;;;;43.92;24.63;;;;;;;9.61;53.46;101351.25;5012417;28;20718;-84
2021/03/24 09:23:00;;;;;;;46.33;25.50;;;;;;;9.54;53.62;101354.09;5019477;28;20061;-83
2021/03/24 09:25:46;;;;;;;48.58;24.48;;;;;;;9.61;53.53;101351.25;5022703;28;20613;-81
2021/03/24 09:28:21;;;;;;;43.28;23.48;;;;;;;9.62;53.55;101346.81;5018234;28;20050;-83
2021/03/24 09:31:10;;;;;;;41.97;24.30;;;;;;;9.64;53.86;101352.94;5019824;28;20077;-80
2021/03/24 09:33:59;;;;;;;37.20;22.67;;;;;;;9.73;53.84;101350.06;5011400;28;20053;-82
2021/03/24 09:36:37;;;;;;;45.17;25.50;;;;;;;9.66;54.07;101349.34;5018621;28;20050;-84
2021/03/24 09:39:40;;;;;;;43.30;24.73;;;;;;;9.70;54.58;101345.72;5017190;28;20041;-84
2021/03/24 09:42:25;;;;;;;42.70;24.58;;;;;;;9.74;54.13;101347.38;5001144;28;20053;-83
2021/03/24 09:44:53;;;;;;;44.10;25.42;;;;;;;9.74;54.42;101338.56;5021071;28;20062;-85
2021/03/24 09:47:37;;;;;;;48.22;25.63;;;;;;;9.85;54.37;101341.75;5021824;28;20056;-82
2021/03/24 09:50:06;;;;;;;42.95;23.98;;;;;;;9.96;53.94;101341.44;5017113;28;20100;-85
2021/03/24 09:52:51;;;;;;;44.30;25.35;;;;;;;10.08;53.46;101335.78;5017151;28;20088;-82
2021/03/24 09:55:49;;;;;;;47.05;25.10;;;;;;;10.11;54.14;101333.91;5011125;28;20114;-82
2021/03/24 09:58:21;;;;;;;43.33;24.02;;;;;;;10.17;53.76;101323.16;5025192;28;20096;-82
2021/03/24 10:01:10;;;;;;;43.78;24.67;;;;;;;10.29;53.81;101319.28;5033733;28;20048;-82
2021/03/24 10:03:37;;;;;;;44.03;24.83;;;;;;;10.49;53.58;101316.00;5018291;28;20137;-84
2021/03/24 10:06:50;;;;;;;43.20;24.17;;;;;;;10.65;52.41;101311.09;5021930;28;20081;-82
2021/03/24 10:09:35;;;;;;;37.28;22.67;;;;;;;10.81;52.27;101322.91;5011952;28;20056;-84
2021/03/24 10:12:06;;;;;;;40.78;22.17;;;;;;;11.00;51.95;101312.56;5031715;28;20110;-81
2021/03/24 10:14:43;;;;;;;39.33;22.77;;;;;;;11.08;51.79;101299.91;5026221;28;20053;-81
2021/03/24 10:21:22;;;;;;;32.83;19.65;;;;;;;11.12;49.75;101304.19;5027379;28;20049;-83
2021/03/24 10:24:10;;;;;;;35.08;20.33;;;;;;;11.28;49.83;101304.53;5027900;28;20050;-84
2021/03/24 10:27:03;;;;;;;34.22;20.42;;;;;;;11.44;49.44;101303.06;5015890;28;20085;-84
2021/03/24 10:30:11;;;;;;;31.42;18.73;;;;;;;11.45;49.20;101303.00;5020527;28;20077;-85
2021/03/24 10:32:49;;;;;;;33.03;19.45;;;;;;;11.50;49.13;101308.13;5026072;28;20053;-82
2021/03/24 10:35:45;;;;;;;29.73;17.77;;;;;;;11.63;48.85;101301.47;5033387;28;20050;-85
2021/03/24 10:38:25;;;;;;;36.47;21.47;;;;;;;11.86;49.48;101298.84;5039731;28;20059;-83
2021/03/24 10:41:18;;;;;;;35.65;20.75;;;;;;;12.10;48.46;101296.19;5028027;28;20488;-88
2021/03/24 10:44:23;;;;;;;36.85;20.33;;;;;;;12.14;47.52;101301.28;5019324;28;20056;-86
2021/03/24 10:47:27;;;;;;;31.20;20.13;;;;;;;12.01;47.45;101280.59;5028644;28;20061;-84
2021/03/24 10:50:23;;;;;;;34.45;19.40;;;;;;;11.95;47.70;101279.06;5016064;28;20059;-85
2021/03/24 10:53:10;;;;;;;35.35;20.50;;;;;;;11.96;48.11;101279.91;5025041;28;20045;-84
2021/03/24 10:55:43;;;;;;;30.95;19.13;;;;;;;12.15;47.80;101272.94;5026781;28;20057;-85
2021/03/24 10:58:28;;;;;;;32.80;19.10;;;;;;;12.44;46.83;101277.09;5028967;28;20053;-85
2021/03/24 11:01:05;;;;;;;32.25;19.90;;;;;;;12.63;46.83;101273.63;5015816;28;20054;-83
2021/03/24 11:04:03;;;;;;;32.85;19.40;;;;;;;12.81;46.12;101265.81;5005236;28;20061;-85
2021/03/24 11:06:50;;;;;;;32.70;19.00;;;;;;;12.91;46.00;101270.66;5018014;28;20157;-84
2021/03/24 11:10:12;;;;;;;33.00;18.88;;;;;;;13.08;46.12;101261.09;5030943;28;20050;-83
2021/03/24 11:12:44;;;;;;;30.23;18.55;;;;;;;13.24;46.00;101262.19;5009170;28;22181;-85
2021/03/24 11:15:44;;;;;;;34.03;20.33;;;;;;;13.23;44.93;101257.78;5014685;28;20084;-86
2021/03/24 11:18:19;;;;;;;32.72;19.23;;;;;;;13.38;45.22;101257.09;5020016;28;20148;-86
2021/03/24 11:21:00;;;;;;;29.08;19.13;;;;;;;13.40;44.39;101251.72;5011600;28;20069;-84
2021/03/24 11:23:39;;;;;;;31.65;19.55;;;;;;;13.39;44.63;101253.50;5016702;28;20050;-85
2021/03/24 11:26:25;;;;;;;33.42;19.35;;;;;;;13.48;44.37;101244.28;5014496;28;20053;-82
2021/03/24 11:28:55;;;;;;;33.40;20.25;;;;;;;13.54;44.70;101242.19;5013606;28;20046;-82
2021/03/24 11:31:41;;;;;;;33.30;19.80;;;;;;;13.55;44.13;101238.59;5017896;28;20137;-83
2021/03/24 11:34:14;;;;;;;33.58;21.02;;;;;;;13.58;44.69;101235.78;5013532;28;20049;-84
2021/03/24 11:36:51;;;;;;;32.10;18.85;;;;;;;13.53;44.00;101232.50;5021286;28;20140;-88
2021/03/24 11:39:47;;;;;;;33.92;20.33;;;;;;;13.53;44.16;101235.16;5018826;28;20069;-86
2021/03/24 11:42:18;;;;;;;29.05;19.13;;;;;;;13.55;43.83;101222.63;5016237;28;20129;-85
2021/03/24 11:44:48;;;;;;;37.72;21.52;;;;;;;13.71;44.37;101228.09;5025543;28;20080;-85
2021/03/24 11:47:49;;;;;;;34.75;20.65;;;;;;;13.87;44.17;101217.59;5019871;28;20081;-86
2021/03/24 11:51:10;;;;;;;37.22;20.55;;;;;;;14.12;44.14;101218.16;5020227;28;20054;-85
2021/03/24 11:53:39;;;;;;;35.67;20.40;;;;;;;14.08;43.54;101215.72;4941502;29;20060;-86
2021/03/24 11:56:10;;;;;;;;;;;;;;;13.82;43.25;101212.50;4959043;28;20760;-84
2021/03/24 11:59:00;;;;;;;32.53;19.95;;;;;;;13.75;43.79;101207.53;4988928;28;20455;-84
2021/03/24 12:01:32;;;;;;;32.47;20.50;;;;;;;13.93;43.76;101210.19;5012497;28;20100;-88
2021/03/24 12:04:08;;;;;;;31.73;20.20;;;;;;;14.08;44.08;101197.94;5017257;28;20054;-89
2021/03/24 12:07:03;;;;;;;29.88;19.58;;;;;;;14.20;43.26;101199.13;5010176;28;20449;-86
2021/03/24 12:09:31;;;;;;;31.77;19.90;;;;;;;14.38;43.07;101191.09;5010882;28;20083;-85
2021/03/24 12:12:09;;;;;;;33.38;19.73;;;;;;;14.51;42.56;101193.16;5018429;28;20786;-83
2021/03/24 12:14:37;;;;;;;33.03;20.42;;;;;;;14.35;42.18;101190.38;5009178;28;20145;-84
2021/03/24 12:17:34;;;;;;;32.88;19.83;;;;;;;14.27;42.54;101196.09;5011929;28;20121;-88
2021/03/24 12:20:25;;;;;;;31.90;20.10;;;;;;;14.13;42.63;101192.38;5010485;28;20393;-83